sensor_id;sensor_type;location;lat;lon;timestamp;P1;durP1;ratioP1;P2;durP2;ratioP2
21416;SDS011;10869;52.238;10.716;2023-02-28T18:14:34;30.83;;;18.30;;
21416;SDS011;10869;52.238;10.716;2023-02-28T18:20:31;8.70;;;5.13;;
21416;SDS011;10869;52.238;10.716;2023-02-28T18:26:19;8.73;;;5.47;;
21416;SDS011;10869;52.238;10.716;2023-02-28T18:28:45;10.70;;;5.53;;
21416;SDS011;10869;52.238;10.716;2023-02-28T18:31:33;7.43;;;4.03;;
21416;SDS011;10869;52.238;10.716;2023-02-28T18:38:26;19.10;;;9.97;;
21416;SDS011;10869;52.238;10.716;2023-02-28T18:47:40;21.07;;;13.93;;
21416;SDS011;10869;52.238;10.716;2023-02-28T18:50:06;17.63;;;12.43;;
21416;SDS011;10869;52.238;10.716;2023-02-28T18:52:32;13.47;;;9.53;;
21416;SDS011;10869;52.238;10.716;2023-02-28T18:54:58;10.37;;;6.33;;
21416;SDS011;10869;52.238;10.716;2023-02-28T19:00:46;11.07;;;5.20;;
21416;SDS011;10869;52.238;10.716;2023-02-28T19:03:12;9.90;;;4.73;;
21416;SDS011;10869;52.238;10.716;2023-02-28T19:05:37;8.07;;;4.23;;
21416;SDS011;10869;52.238;10.716;2023-02-28T19:08:03;10.03;;;4.97;;
21416;SDS011;10869;52.238;10.716;2023-02-28T19:13:51;8.30;;;3.90;;
21416;SDS011;10869;52.238;10.716;2023-02-28T19:19:45;12.93;;;4.17;;
21416;SDS011;10869;52.238;10.716;2023-02-28T19:22:11;10.83;;;3.63;;
21416;SDS011;10869;52.238;10.716;2023-02-28T19:24:37;7.83;;;3.87;;
21416;SDS011;10869;52.238;10.716;2023-02-28T19:29:55;7.97;;;4.20;;
21416;SDS011;10869;52.238;10.716;2023-02-28T19:35:45;12.10;;;4.67;;
21416;SDS011;10869;52.238;10.716;2023-02-28T19:38:12;8.13;;;3.97;;
21416;SDS011;10869;52.238;10.716;2023-02-28T19:44:00;10.17;;;4.27;;
21416;SDS011;10869;52.238;10.716;2023-02-28T19:46:27;13.13;;;4.03;;
21416;SDS011;10869;52.238;10.716;2023-02-28T19:51:42;7.80;;;4.30;;
21416;SDS011;10869;52.238;10.716;2023-02-28T19:57:30;9.80;;;4.47;;
21416;SDS011;10869;52.238;10.716;2023-02-28T19:59:56;8.57;;;3.80;;
21416;SDS011;10869;52.238;10.716;2023-02-28T20:02:22;10.03;;;4.57;;
21416;SDS011;10869;52.238;10.716;2023-02-28T20:04:48;9.20;;;4.23;;
21416;SDS011;10869;52.238;10.716;2023-02-28T20:07:17;9.27;;;3.80;;
21416;SDS011;10869;52.238;10.716;2023-02-28T20:09:47;11.17;;;5.10;;
21416;SDS011;10869;52.238;10.716;2023-02-28T20:12:15;11.07;;;4.90;;
21416;SDS011;10869;52.238;10.716;2023-02-28T20:14:42;8.73;;;4.33;;
21416;SDS011;10869;52.238;10.716;2023-02-28T20:17:08;8.13;;;4.00;;
21416;SDS011;10869;52.238;10.716;2023-02-28T20:19:40;9.60;;;4.10;;
21416;SDS011;10869;52.238;10.716;2023-02-28T20:25:28;9.20;;;4.60;;
21416;SDS011;10869;52.238;10.716;2023-02-28T20:36:40;8.67;;;4.53;;
21416;SDS011;10869;52.238;10.716;2023-02-28T20:39:06;10.17;;;4.40;;
21416;SDS011;10869;52.238;10.716;2023-02-28T20:41:32;9.37;;;4.90;;
21416;SDS011;10869;52.238;10.716;2023-02-28T20:43:58;9.07;;;4.30;;
21416;SDS011;10869;52.238;10.716;2023-02-28T20:46:29;8.73;;;4.00;;
21416;SDS011;10869;52.238;10.716;2023-02-28T20:51:48;11.27;;;5.10;;
21416;SDS011;10869;52.238;10.716;2023-02-28T20:57:05;11.30;;;4.80;;
21416;SDS011;10869;52.238;10.716;2023-02-28T21:02:53;10.20;;;5.07;;
21416;SDS011;10869;52.238;10.716;2023-02-28T21:05:18;11.23;;;5.00;;
21416;SDS011;10869;52.238;10.716;2023-02-28T21:07:44;9.53;;;4.40;;
21416;SDS011;10869;52.238;10.716;2023-02-28T21:13:13;13.60;;;4.67;;
21416;SDS011;10869;52.238;10.716;2023-02-28T21:15:38;13.50;;;4.83;;
21416;SDS011;10869;52.238;10.716;2023-02-28T21:18:04;10.53;;;4.67;;
21416;SDS011;10869;52.238;10.716;2023-02-28T21:20:30;12.90;;;6.13;;
21416;SDS011;10869;52.238;10.716;2023-02-28T21:22:56;10.03;;;4.80;;
21416;SDS011;10869;52.238;10.716;2023-02-28T21:25:22;9.90;;;5.43;;
21416;SDS011;10869;52.238;10.716;2023-02-28T21:27:47;11.20;;;5.23;;
21416;SDS011;10869;52.238;10.716;2023-02-28T21:30:14;9.83;;;5.03;;
21416;SDS011;10869;52.238;10.716;2023-02-28T21:42:46;10.33;;;5.47;;
21416;SDS011;10869;52.238;10.716;2023-02-28T21:47:47;11.87;;;5.57;;
21416;SDS011;10869;52.238;10.716;2023-02-28T21:50:12;11.93;;;5.87;;
21416;SDS011;10869;52.238;10.716;2023-02-28T21:52:38;16.67;;;5.00;;
21416;SDS011;10869;52.238;10.716;2023-02-28T21:55:05;9.93;;;4.73;;
21416;SDS011;10869;52.238;10.716;2023-02-28T21:57:31;11.37;;;5.17;;
21416;SDS011;10869;52.238;10.716;2023-02-28T22:00:00;10.37;;;4.83;;
21416;SDS011;10869;52.238;10.716;2023-02-28T22:02:26;9.30;;;4.63;;
21416;SDS011;10869;52.238;10.716;2023-02-28T22:04:51;10.60;;;4.70;;
21416;SDS011;10869;52.238;10.716;2023-02-28T22:07:17;10.63;;;5.17;;
21416;SDS011;10869;52.238;10.716;2023-02-28T22:09:43;13.13;;;4.90;;
21416;SDS011;10869;52.238;10.716;2023-02-28T22:12:09;11.30;;;5.37;;
21416;SDS011;10869;52.238;10.716;2023-02-28T22:14:34;11.83;;;5.17;;
21416;SDS011;10869;52.238;10.716;2023-02-28T22:17:03;11.17;;;4.87;;
21416;SDS011;10869;52.238;10.716;2023-02-28T22:19:29;10.40;;;4.67;;
21416;SDS011;10869;52.238;10.716;2023-02-28T22:21:55;11.37;;;5.07;;
21416;SDS011;10869;52.238;10.716;2023-02-28T22:24:21;11.17;;;4.67;;
21416;SDS011;10869;52.238;10.716;2023-02-28T22:26:48;13.83;;;5.70;;
21416;SDS011;10869;52.238;10.716;2023-02-28T22:29:15;11.03;;;4.83;;
21416;SDS011;10869;52.238;10.716;2023-02-28T22:31:41;12.93;;;5.27;;
21416;SDS011;10869;52.238;10.716;2023-02-28T22:34:07;12.03;;;5.80;;
21416;SDS011;10869;52.238;10.716;2023-02-28T22:36:35;9.27;;;4.53;;
21416;SDS011;10869;52.238;10.716;2023-02-28T22:39:02;11.40;;;4.80;;
21416;SDS011;10869;52.238;10.716;2023-02-28T22:41:29;10.80;;;4.67;;
21416;SDS011;10869;52.238;10.716;2023-02-28T22:43:56;10.43;;;5.27;;
21416;SDS011;10869;52.238;10.716;2023-02-28T22:46:23;12.03;;;4.90;;
21416;SDS011;10869;52.238;10.716;2023-02-28T22:48:51;11.27;;;5.07;;
21416;SDS011;10869;52.238;10.716;2023-02-28T22:51:21;15.63;;;5.10;;
21416;SDS011;10869;52.238;10.716;2023-02-28T22:53:49;13.83;;;4.20;;
21416;SDS011;10869;52.238;10.716;2023-02-28T22:56:17;10.50;;;4.63;;
21416;SDS011;10869;52.238;10.716;2023-02-28T22:58:51;10.77;;;4.83;;
21416;SDS011;10869;52.238;10.716;2023-02-28T23:01:20;9.90;;;4.80;;
21416;SDS011;10869;52.238;10.716;2023-02-28T23:03:48;8.60;;;4.30;;
21416;SDS011;10869;52.238;10.716;2023-02-28T23:06:15;8.07;;;4.40;;
21416;SDS011;10869;52.238;10.716;2023-02-28T23:08:44;11.70;;;4.83;;
21416;SDS011;10869;52.238;10.716;2023-02-28T23:11:10;10.80;;;4.93;;
21416;SDS011;10869;52.238;10.716;2023-02-28T23:13:41;9.53;;;4.47;;
21416;SDS011;10869;52.238;10.716;2023-02-28T23:16:07;11.07;;;4.87;;
21416;SDS011;10869;52.238;10.716;2023-02-28T23:18:33;9.83;;;4.30;;
21416;SDS011;10869;52.238;10.716;2023-02-28T23:20:59;9.73;;;4.43;;
21416;SDS011;10869;52.238;10.716;2023-02-28T23:23:25;10.33;;;4.23;;
21416;SDS011;10869;52.238;10.716;2023-02-28T23:25:51;10.27;;;4.53;;
21416;SDS011;10869;52.238;10.716;2023-02-28T23:28:17;9.07;;;4.23;;
21416;SDS011;10869;52.238;10.716;2023-02-28T23:30:43;8.80;;;4.03;;
21416;SDS011;10869;52.238;10.716;2023-02-28T23:33:08;10.30;;;4.80;;
21416;SDS011;10869;52.238;10.716;2023-02-28T23:35:34;11.27;;;4.80;;
21416;SDS011;10869;52.238;10.716;2023-02-28T23:38:00;9.17;;;4.50;;
21416;SDS011;10869;52.238;10.716;2023-02-28T23:40:26;10.37;;;4.87;;
21416;SDS011;10869;52.238;10.716;2023-02-28T23:42:52;12.23;;;5.00;;
21416;SDS011;10869;52.238;10.716;2023-02-28T23:45:18;10.43;;;4.60;;
21416;SDS011;10869;52.238;10.716;2023-02-28T23:47:44;11.90;;;4.40;;
21416;SDS011;10869;52.238;10.716;2023-02-28T23:50:10;9.30;;;3.80;;
21416;SDS011;10869;52.238;10.716;2023-02-28T23:52:36;8.87;;;4.40;;
21416;SDS011;10869;52.238;10.716;2023-02-28T23:55:02;8.47;;;4.23;;
21416;SDS011;10869;52.238;10.716;2023-02-28T23:57:28;9.90;;;4.03;;
21416;SDS011;10869;52.238;10.716;2023-02-28T23:59:54;8.17;;;3.83;;
